Olympic National Park, WA

03:06 PM PDT am 29. Mai 2015 (GMT -0700)
Whidbey Island Naval Air Station | | Change Station
CLOSE
Current Station
Flughafen
Location: Whidbey Island,
Höhe: 46 ft
Wetterstationen in der Umgebung

Höhe 46 ft 48.35 °N, 122.66 °W | Updated 10 minutes ago

Heiter
Heiter
60 °F
gefühlte 60 °F
N
8
Wind Wechselnd Wind aus West

Heute
Max. -- | schwach -- °F
--% Regenrisiko
Gestern
Max. -- | schwach -- °F
Precip. -- inch
5:20 AM 9:02 PM
Zweites Viertel, 86% visible
Druck 29.99 inch
Sichtweite 10.0 Meilen
Wolken Few 4500 ft
Few 9000 ft
Teils Wolkig 20000 ft
Teils Wolkig 25000 ft
Taupunkt 57 °F
Feuchtigkeit 90%
Regen 0.00 inch
Schneehöhe Nicht verfügbar..
UV 7 von 12
Pollen 8.30 von 12
Luftqualität Nicht verfügbar..
Flu Activity Sporadic
METAR KNUW 292156Z 26007KT 10SM FEW045 FEW090 SCT200 SCT250 16/14 A2998 RMK AO2 SLP153 CB DSNT E-SE T01560139 $

More Conditions Fewer Conditions

Druck 29.99 inch
Sichtweite 10.0 Meilen
Wolken Few 4500 ft
Few 9000 ft
Teils Wolkig 20000 ft
Teils Wolkig 25000 ft
Taupunkt 57 °F
Feuchtigkeit 90%
Regen 0.00 inch
Schneehöhe Nicht verfügbar..
UV 7 von 12
Pollen 8.30 von 12
Luftqualität Nicht verfügbar..
Flu Activity Sporadic
METAR KNUW 292156Z 26007KT 10SM FEW045 FEW090 SCT200 SCT250 16/14 A2998 RMK AO2 SLP153 CB DSNT E-SE T01560139 $

More Conditions Fewer Conditions

10-Day Weather Forecast

Almanac

Astronomie

May. 29, 2015 Aufgang Untergang
Genaue Zeit
Bürgerliche Dämmerung
Nautische Dämmerung
Astronomische Dämmerung
Mond
Länge des sichtbaren Lichts
Tageslänge
Tomorrow will be .
, % of the Moon is Illuminated

Heutige Rekorde

State Highs State Lows

Community

WunderPhotos

Upload Photos

1,825,374 Fotos hochgeladen!

WunderBlogs® & News

Nearby

Luftqualität

  Luftqualität LQ Index Schadstoff
Not available.

Schneehöhe

Station Depth Höhe

Erdbebenaktivität

Stadt Distance Mag. Time & Date
Minimum magnitude displayed is 2.5.

küstennahe Wassertemperaturen

Ort Temperatur

Stations

Wetterstationen in der Umgebung

Stationsstandort Temp. Windchill Taupunkt Feuchtigkeit Wind Precip. Höhe Aktualisiert Art